Time;durP1;ratioP1;P1;durP2;ratioP2;P2;SDS_P1;SDS_P2;PMS_P1;PMS_P2;Temp;Humidity;BMP_temperature;BMP_pressure;BME280_temperature;BME280_humidity;BME280_pressure;Samples;Min_cycle;Max_cycle;Signal;HPM_P1;HPM_P2
2022/09/09 00:01:33;;;;;;;4.50;2.10;;;16.60;78.40;;;;;;5040592;28;20423;-73
2022/09/09 00:04:07;;;;;;;3.10;2.23;;;16.50;78.90;;;;;;5030897;28;20205;-72
2022/09/09 00:06:46;;;;;;;8.77;2.00;;;16.50;78.90;;;;;;5037189;28;20798;-72
2022/09/09 00:09:13;;;;;;;4.67;2.00;;;16.40;79.00;;;;;;5034137;28;20761;-73
2022/09/09 00:11:50;;;;;;;4.97;2.00;;;16.30;79.20;;;;;;5036583;28;21032;-72
2022/09/09 00:14:30;;;;;;;6.60;2.30;;;16.20;79.60;;;;;;5029704;28;20825;-72
2022/09/09 00:17:02;;;;;;;5.53;2.53;;;16.20;79.50;;;;;;5031015;28;20427;-73
2022/09/09 00:19:31;;;;;;;7.33;1.93;;;16.20;79.50;;;;;;5036881;28;20454;-72
2022/09/09 00:22:20;;;;;;;5.07;2.10;;;16.30;79.50;;;;;;5032049;28;20451;-73
2022/09/09 00:24:53;;;;;;;5.30;2.10;;;16.20;79.50;;;;;;5039004;28;20467;-72
2022/09/09 00:27:23;;;;;;;7.10;2.03;;;16.20;79.60;;;;;;5040437;28;20428;-72
2022/09/09 00:30:11;;;;;;;6.57;2.33;;;16.30;79.30;;;;;;5039435;28;20415;-73
2022/09/09 00:32:37;;;;;;;6.50;2.33;;;16.20;79.30;;;;;;5033658;28;20471;-72
2022/09/09 00:35:22;;;;;;;4.23;1.93;;;16.30;79.20;;;;;;5040005;28;20691;-72
2022/09/09 00:37:50;;;;;;;3.50;1.70;;;16.40;78.30;;;;;;5022345;28;20465;-72
2022/09/09 00:40:31;;;;;;;4.13;2.00;;;16.50;78.00;;;;;;5022197;28;20439;-73
2022/09/09 00:43:31;;;;;;;3.60;2.10;;;16.50;77.70;;;;;;5039047;28;20451;-72
2022/09/09 00:46:26;;;;;;;2.80;1.60;;;16.60;77.70;;;;;;5035322;28;20486;-74
2022/09/09 00:49:03;;;;;;;4.70;1.93;;;16.70;76.80;;;;;;5034272;28;20516;-71
2022/09/09 00:51:35;;;;;;;4.07;1.70;;;16.70;76.40;;;;;;5028734;28;20433;-73
2022/09/09 00:54:22;;;;;;;2.90;1.83;;;16.80;76.10;;;;;;5028417;28;20485;-72
2022/09/09 00:57:13;;;;;;;3.30;1.70;;;16.90;75.50;;;;;;5034061;28;20579;-71
2022/09/09 00:59:52;;;;;;;3.17;1.60;;;17.00;75.20;;;;;;5033202;28;20428;-71
2022/09/09 01:02:30;;;;;;;3.77;1.90;;;17.10;74.50;;;;;;5030099;28;20933;-72
2022/09/09 01:05:06;;;;;;;5.07;1.90;;;17.20;74.00;;;;;;5027162;28;20459;-72
2022/09/09 01:07:32;;;;;;;3.90;1.47;;;17.30;73.50;;;;;;5031046;28;20425;-72
2022/09/09 01:10:00;;;;;;;4.37;1.80;;;17.30;73.00;;;;;;5033710;28;20434;-73
2022/09/09 01:12:41;;;;;;;3.97;1.80;;;17.40;72.90;;;;;;5015090;28;20217;-71
2022/09/09 01:15:17;;;;;;;3.90;1.80;;;17.50;72.40;;;;;;5038252;28;20428;-73
2022/09/09 01:18:06;;;;;;;3.00;1.80;;;17.50;71.80;;;;;;5039245;28;20479;-71
2022/09/09 01:20:46;;;;;;;4.60;1.73;;;17.70;71.40;;;;;;5034792;28;20420;-72
2022/09/09 01:23:38;;;;;;;4.03;1.77;;;17.70;71.30;;;;;;5029453;28;20558;-71
2022/09/09 01:26:38;;;;;;;2.40;1.47;;;17.70;71.10;;;;;;5029180;28;20499;-71
2022/09/09 01:29:13;;;;;;;3.93;1.93;;;17.70;71.10;;;;;;5027423;28;20806;-72
2022/09/09 01:31:42;;;;;;;5.90;1.37;;;17.70;71.60;;;;;;5030946;28;20452;-72
2022/09/09 01:34:15;;;;;;;2.47;1.40;;;17.70;71.80;;;;;;5026571;28;20478;-72
2022/09/09 01:36:53;;;;;;;2.90;1.80;;;17.60;72.40;;;;;;5027622;28;20914;-71
2022/09/09 01:39:20;;;;;;;4.03;1.93;;;17.50;72.90;;;;;;5007872;28;20435;-71
2022/09/09 01:41:45;;;;;;;4.27;1.90;;;17.40;73.20;;;;;;5032240;28;20439;-71
2022/09/09 01:44:11;;;;;;;3.00;1.73;;;17.30;73.50;;;;;;5030851;28;20478;-72
2022/09/09 01:46:37;;;;;;;2.47;1.63;;;17.20;73.70;;;;;;5032918;28;20244;-72
2022/09/09 01:49:06;;;;;;;6.07;1.60;;;17.20;73.30;;;;;;5034365;28;20506;-73
2022/09/09 01:51:31;;;;;;;4.43;1.60;;;17.30;73.30;;;;;;5031433;28;20174;-72
2022/09/09 01:53:57;;;;;;;3.67;1.73;;;17.40;72.90;;;;;;5028951;28;20971;-72
2022/09/09 01:56:38;;;;;;;5.37;1.90;;;17.40;73.00;;;;;;5032118;28;20723;-73
2022/09/09 01:59:23;;;;;;;6.83;1.77;;;17.50;72.90;;;;;;5012813;28;20184;-72
2022/09/09 02:02:13;;;;;;;2.70;1.33;;;17.40;73.20;;;;;;5024054;28;20457;-72
2022/09/09 02:04:42;;;;;;;7.13;1.60;;;17.40;73.30;;;;;;5031224;28;20556;-72
2022/09/09 02:07:26;;;;;;;5.23;1.70;;;17.40;73.00;;;;;;5016030;28;20428;-72
2022/09/09 02:10:00;;;;;;;2.33;1.67;;;17.40;72.90;;;;;;5032416;28;21091;-73
2022/09/09 02:12:30;;;;;;;3.47;1.90;;;17.30;73.30;;;;;;5029477;28;20470;-72
2022/09/09 02:15:03;;;;;;;6.00;2.03;;;17.30;73.20;;;;;;5025020;28;20440;-71
2022/09/09 02:17:33;;;;;;;3.00;1.53;;;17.40;72.90;;;;;;5028427;28;21140;-72
2022/09/09 02:20:08;;;;;;;4.77;1.80;;;17.40;72.90;;;;;;5027540;28;20539;-72
2022/09/09 02:22:35;;;;;;;2.37;1.53;;;17.40;73.20;;;;;;5026233;28;20917;-72
2022/09/09 02:25:02;;;;;;;7.33;1.70;;;17.40;73.50;;;;;;5026050;28;21000;-72
2022/09/09 02:27:28;;;;;;;3.00;1.97;;;17.30;73.50;;;;;;5025808;28;20432;-72
2022/09/09 02:29:56;;;;;;;5.17;1.80;;;17.30;73.90;;;;;;5024228;28;20421;-73
2022/09/09 02:32:23;;;;;;;2.90;1.87;;;17.20;74.00;;;;;;5027332;28;20946;-73
2022/09/09 02:34:55;;;;;;;3.00;1.90;;;17.10;74.90;;;;;;5027735;28;20518;-72
2022/09/09 02:37:28;;;;;;;3.30;1.60;;;17.10;75.20;;;;;;5035496;28;20434;-73
2022/09/09 02:39:54;;;;;;;4.60;1.97;;;17.10;75.50;;;;;;5033398;28;20523;-73
2022/09/09 02:42:20;;;;;;;3.67;1.80;;;16.90;75.80;;;;;;5031284;28;20430;-72
2022/09/09 02:44:46;;;;;;;3.80;2.10;;;16.80;76.50;;;;;;5029584;28;20477;-71
2022/09/09 02:47:41;;;;;;;3.20;1.50;;;16.70;77.10;;;;;;5027480;28;20426;-72
2022/09/09 02:50:16;;;;;;;2.60;1.60;;;16.60;77.40;;;;;;5025985;28;20265;-73
2022/09/09 02:52:47;;;;;;;5.03;1.90;;;16.50;77.70;;;;;;5025952;28;20472;-73
2022/09/09 02:55:34;;;;;;;3.20;1.70;;;16.40;78.00;;;;;;5032188;28;20427;-73
2022/09/09 02:58:02;;;;;;;4.43;2.20;;;16.30;78.40;;;;;;5033712;28;20428;-72
2022/09/09 03:00:28;;;;;;;7.13;1.87;;;16.30;78.90;;;;;;5031445;28;20430;-73
2022/09/09 03:02:54;;;;;;;3.90;2.17;;;16.20;79.20;;;;;;5028543;28;20463;-73
2022/09/09 03:05:20;;;;;;;5.30;1.83;;;16.20;79.00;;;;;;5032244;28;20471;-72
2022/09/09 03:07:47;;;;;;;4.50;1.97;;;16.00;80.30;;;;;;5015578;28;20521;-72
2022/09/09 03:10:13;;;;;;;5.00;2.10;;;15.90;80.80;;;;;;5032933;28;20506;-72
2022/09/09 03:12:39;;;;;;;5.90;1.90;;;15.90;81.10;;;;;;5028562;28;20573;-71
2022/09/09 03:15:06;;;;;;;2.30;1.73;;;16.00;80.80;;;;;;5024901;28;20524;-72
2022/09/09 03:17:31;;;;;;;3.27;1.47;;;16.10;80.20;;;;;;5035923;28;21022;-72
2022/09/09 03:19:58;;;;;;;3.73;1.43;;;16.10;79.50;;;;;;5036576;28;20435;-71
2022/09/09 03:22:25;;;;;;;3.40;1.60;;;16.20;78.90;;;;;;5039291;28;20217;-72
2022/09/09 03:24:51;;;;;;;4.60;1.50;;;16.40;77.80;;;;;;5031050;28;21111;-72
2022/09/09 03:27:17;;;;;;;3.87;1.70;;;16.50;77.40;;;;;;5032248;28;20447;-72
2022/09/09 03:29:42;;;;;;;4.20;1.37;;;16.60;76.70;;;;;;5022845;28;20452;-72
2022/09/09 03:32:10;;;;;;;3.80;1.30;;;16.70;76.20;;;;;;5013457;28;20499;-73
2022/09/09 03:34:38;;;;;;;4.93;1.20;;;16.80;76.10;;;;;;5028781;28;20212;-73
2022/09/09 03:37:05;;;;;;;3.07;1.37;;;16.90;76.10;;;;;;5032114;28;20416;-73
2022/09/09 03:39:31;;;;;;;2.80;1.40;;;16.90;75.90;;;;;;5030895;28;20421;-72
2022/09/09 03:41:56;;;;;;;3.77;1.47;;;16.80;76.20;;;;;;5032190;28;20929;-73
2022/09/09 03:44:22;;;;;;;2.20;1.40;;;16.80;76.50;;;;;;5005988;28;20255;-72
2022/09/09 03:46:47;;;;;;;6.97;1.60;;;16.80;76.80;;;;;;5030791;28;20215;-73
2022/09/09 03:49:13;;;;;;;2.20;1.57;;;16.70;76.80;;;;;;5031091;28;20536;-72
2022/09/09 03:51:40;;;;;;;2.27;1.30;;;16.60;77.40;;;;;;5031928;28;20537;-72
2022/09/09 03:54:08;;;;;;;2.90;1.50;;;16.60;77.80;;;;;;5026215;28;20193;-72
2022/09/09 03:56:34;;;;;;;1.80;1.40;;;16.50;78.00;;;;;;5035663;28;20422;-72
2022/09/09 03:59:00;;;;;;;2.33;1.40;;;16.50;78.00;;;;;;5033933;28;20594;-72
2022/09/09 04:01:25;;;;;;;3.50;1.47;;;16.50;77.80;;;;;;5033302;28;20978;-72
2022/09/09 04:03:52;;;;;;;3.60;1.57;;;16.60;77.10;;;;;;5025469;28;20211;-72
2022/09/09 04:06:19;;;;;;;4.67;1.47;;;16.60;77.40;;;;;;5032714;28;20219;-71
2022/09/09 04:08:48;;;;;;;3.13;1.43;;;16.70;77.10;;;;;;5025573;28;20415;-73
2022/09/09 04:11:15;;;;;;;3.40;1.77;;;16.70;77.10;;;;;;5030574;28;20423;-72
2022/09/09 04:13:41;;;;;;;2.80;1.67;;;16.60;77.40;;;;;;5019719;28;20594;-72
2022/09/09 04:16:09;;;;;;;5.33;1.63;;;16.50;78.00;;;;;;5027939;28;20420;-73
2022/09/09 04:18:35;;;;;;;2.93;1.60;;;16.50;78.00;;;;;;5027165;28;20435;-71
2022/09/09 04:21:01;;;;;;;4.80;1.50;;;16.60;77.70;;;;;;5028335;28;20534;-72
2022/09/09 04:23:30;;;;;;;3.93;1.37;;;16.60;77.10;;;;;;5027755;28;20213;-71
2022/09/09 04:25:58;;;;;;;2.47;1.30;;;16.70;76.80;;;;;;5026651;28;20534;-73
2022/09/09 04:28:26;;;;;;;3.30;1.50;;;16.90;76.40;;;;;;5013840;28;20519;-72
2022/09/09 04:30:52;;;;;;;1.53;1.43;;;17.00;76.10;;;;;;5032007;28;20822;-73
2022/09/09 04:33:18;;;;;;;6.10;1.70;;;17.00;75.90;;;;;;5029295;28;20457;-72
2022/09/09 04:35:49;;;;;;;3.10;1.70;;;17.10;75.70;;;;;;5030334;28;20914;-72
2022/09/09 04:38:16;;;;;;;3.70;1.70;;;17.00;75.80;;;;;;5030949;28;20910;-74
2022/09/09 04:40:49;;;;;;;3.60;1.83;;;17.00;75.90;;;;;;5030986;28;20433;-72
2022/09/09 04:43:15;;;;;;;2.70;1.93;;;17.10;75.50;;;;;;5026317;28;20562;-73
2022/09/09 04:45:42;;;;;;;5.60;2.20;;;17.10;75.70;;;;;;5028502;28;20559;-72
2022/09/09 04:48:09;;;;;;;5.83;2.20;;;17.10;75.70;;;;;;5028828;28;20177;-73
2022/09/09 04:50:35;;;;;;;4.37;2.10;;;17.00;75.90;;;;;;5027210;28;20516;-73
2022/09/09 04:53:05;;;;;;;4.67;2.20;;;17.00;76.20;;;;;;5025361;28;20509;-72
2022/09/09 04:55:31;;;;;;;3.93;1.80;;;16.90;76.20;;;;;;5028525;28;20451;-73
2022/09/09 04:57:57;;;;;;;4.67;2.00;;;16.80;76.70;;;;;;5030603;28;21057;-72
2022/09/09 05:00:23;;;;;;;2.30;1.70;;;16.70;76.80;;;;;;5029463;28;20438;-72
2022/09/09 05:02:49;;;;;;;3.43;2.00;;;16.60;77.40;;;;;;5026826;28;20817;-71
2022/09/09 05:05:15;;;;;;;6.30;2.20;;;16.40;78.10;;;;;;5028560;28;20468;-71
2022/09/09 05:07:41;;;;;;;5.20;1.90;;;16.30;78.70;;;;;;5013337;28;20213;-72
2022/09/09 05:10:07;;;;;;;5.03;2.40;;;16.30;78.90;;;;;;5023198;28;20260;-73
2022/09/09 05:12:33;;;;;;;6.90;2.20;;;16.20;79.00;;;;;;5022282;28;20465;-72
2022/09/09 05:14:58;;;;;;;3.53;2.00;;;16.20;79.50;;;;;;5021183;28;20432;-72
2022/09/09 05:17:24;;;;;;;6.27;2.00;;;16.20;79.60;;;;;;5025870;28;20177;-72
2022/09/09 05:19:58;;;;;;;2.83;1.70;;;16.20;79.70;;;;;;5045636;28;20557;-72
2022/09/09 05:22:24;;;;;;;3.90;1.93;;;16.10;79.90;;;;;;5039685;28;20443;-71
2022/09/09 05:24:50;;;;;;;2.33;1.80;;;16.20;79.90;;;;;;5060196;28;20231;-72
2022/09/09 05:27:19;;;;;;;4.33;1.93;;;16.20;79.90;;;;;;5056130;28;20183;-72
2022/09/09 05:29:45;;;;;;;3.80;1.80;;;16.30;79.60;;;;;;5058634;28;20847;-72
2022/09/09 05:32:11;;;;;;;5.50;1.93;;;16.40;79.30;;;;;;5051947;28;20774;-72
2022/09/09 05:34:37;;;;;;;7.00;2.53;;;16.40;79.50;;;;;;5055567;28;20442;-72
2022/09/09 05:37:04;;;;;;;4.07;2.00;;;16.40;79.20;;;;;;5054425;28;20185;-73
2022/09/09 05:39:30;;;;;;;5.57;2.40;;;16.40;79.00;;;;;;5058092;28;20580;-72
2022/09/09 05:41:55;;;;;;;7.00;2.20;;;16.50;79.00;;;;;;5054162;28;20532;-72
2022/09/09 05:44:23;;;;;;;5.27;2.03;;;16.50;78.90;;;;;;5057137;28;20464;-72
2022/09/09 05:46:49;;;;;;;2.40;1.60;;;16.50;78.70;;;;;;5060319;28;20279;-72
2022/09/09 05:49:15;;;;;;;3.40;1.93;;;16.60;78.70;;;;;;5058231;28;20909;-72
2022/09/09 05:51:42;;;;;;;2.77;1.90;;;16.60;78.60;;;;;;5058153;28;20883;-72
2022/09/09 05:54:08;;;;;;;6.73;2.10;;;16.70;78.30;;;;;;5058579;28;20547;-72
2022/09/09 05:56:34;;;;;;;5.40;2.00;;;16.70;78.30;;;;;;5059856;28;20912;-72
2022/09/09 05:59:00;;;;;;;3.77;1.90;;;16.80;78.00;;;;;;5062907;28;20473;-72
2022/09/09 06:01:28;;;;;;;3.50;1.80;;;16.90;77.70;;;;;;5060955;28;20214;-72
2022/09/09 06:03:54;;;;;;;2.60;1.70;;;17.00;77.30;;;;;;5060322;28;20513;-72
2022/09/09 06:06:23;;;;;;;3.83;2.07;;;17.10;76.80;;;;;;5059211;28;20461;-72
2022/09/09 06:08:51;;;;;;;12.20;2.70;;;17.20;76.40;;;;;;5059139;28;20438;-72
2022/09/09 06:11:22;;;;;;;17.70;3.50;;;17.30;76.40;;;;;;5057132;28;20742;-72
2022/09/09 06:13:51;;;;;;;9.23;2.70;;;17.30;76.20;;;;;;5052363;28;20971;-71
2022/09/09 06:16:19;;;;;;;5.43;1.93;;;17.30;76.20;;;;;;5059981;28;20484;-72
2022/09/09 06:18:45;;;;;;;5.20;2.47;;;17.40;76.20;;;;;;5057649;28;20486;-72
2022/09/09 06:21:20;;;;;;;7.00;2.67;;;17.40;76.20;;;;;;5057401;28;20425;-73
2022/09/09 06:23:47;;;;;;;2.03;1.63;;;17.40;76.40;;;;;;5051485;28;20242;-72
2022/09/09 06:26:21;;;;;;;11.20;2.97;;;17.40;76.50;;;;;;5058841;28;20891;-74
2022/09/09 06:28:49;;;;;;;10.77;2.80;;;17.40;76.70;;;;;;5051534;28;20439;-74
2022/09/09 06:31:23;;;;;;;6.10;2.00;;;17.40;76.80;;;;;;5045236;28;20546;-72
2022/09/09 06:33:54;;;;;;;5.40;2.27;;;17.40;77.10;;;;;;5034427;28;20549;-72
2022/09/09 06:36:37;;;;;;;4.00;2.23;;;17.40;77.40;;;;;;5041055;28;20428;-71
2022/09/09 06:39:04;;;;;;;3.97;2.00;;;17.40;77.30;;;;;;5044541;28;20490;-73
2022/09/09 06:41:32;;;;;;;5.20;2.03;;;17.50;77.10;;;;;;5042378;28;20533;-73
2022/09/09 06:43:58;;;;;;;9.03;2.57;;;17.50;77.10;;;;;;5043359;28;20460;-72
2022/09/09 06:46:29;;;;;;;6.23;2.90;;;17.50;77.30;;;;;;5042193;28;20487;-74
2022/09/09 06:48:57;;;;;;;3.67;2.00;;;17.50;77.10;;;;;;5045474;28;20246;-74
2022/09/09 06:51:24;;;;;;;3.93;2.00;;;17.60;77.00;;;;;;5044195;28;20432;-74
2022/09/09 06:53:52;;;;;;;4.47;2.20;;;17.70;76.70;;;;;;5045267;28;20463;-73
2022/09/09 06:56:23;;;;;;;7.43;2.40;;;17.70;76.50;;;;;;5041318;28;20428;-73
2022/09/09 06:58:50;;;;;;;5.43;2.60;;;17.80;76.80;;;;;;5043207;28;20853;-73
2022/09/09 07:01:21;;;;;;;3.70;2.50;;;17.90;75.90;;;;;;5036329;28;20434;-73
2022/09/09 07:03:50;;;;;;;6.20;2.50;;;17.90;76.10;;;;;;5040455;28;20464;-73
2022/09/09 07:06:21;;;;;;;4.10;2.27;;;17.90;75.90;;;;;;5039583;28;20446;-74
2022/09/09 07:08:55;;;;;;;5.17;2.20;;;18.00;75.90;;;;;;5042139;28;20465;-73
2022/09/09 07:11:22;;;;;;;14.53;2.90;;;18.10;75.50;;;;;;5040072;28;20431;-72
2022/09/09 07:13:48;;;;;;;9.40;2.83;;;18.20;75.40;;;;;;5041406;28;20479;-73
2022/09/09 07:16:19;;;;;;;3.77;2.03;;;18.20;75.50;;;;;;5038963;28;20434;-73
2022/09/09 07:18:45;;;;;;;6.50;1.90;;;18.30;75.40;;;;;;5041258;28;20518;-72
2022/09/09 07:21:12;;;;;;;10.50;2.20;;;18.30;75.20;;;;;;5041638;28;20463;-72
2022/09/09 07:23:41;;;;;;;7.97;2.80;;;18.30;74.90;;;;;;5041890;28;20715;-72
2022/09/09 07:26:10;;;;;;;6.47;2.40;;;18.40;74.80;;;;;;5047311;28;20426;-74
2022/09/09 07:28:36;;;;;;;3.40;2.40;;;18.50;74.50;;;;;;5042193;28;20424;-73
2022/09/09 07:31:03;;;;;;;3.63;2.27;;;18.50;74.00;;;;;;5048491;28;20801;-73
2022/09/09 07:33:33;;;;;;;4.80;2.03;;;18.50;74.20;;;;;;5038070;28;20953;-73
2022/09/09 07:36:04;;;;;;;5.70;1.73;;;18.60;74.20;;;;;;5044760;28;20435;-74
2022/09/09 07:38:29;;;;;;;5.50;2.07;;;18.60;74.20;;;;;;5039583;28;20526;-73
2022/09/09 07:41:14;;;;;;;3.93;2.00;;;18.70;73.90;;;;;;5047292;28;20431;-72
2022/09/09 07:43:44;;;;;;;2.53;1.60;;;18.60;74.00;;;;;;5034289;28;20210;-72
2022/09/09 07:46:12;;;;;;;7.20;2.00;;;18.70;74.00;;;;;;5047760;28;20514;-73
2022/09/09 07:48:39;;;;;;;5.37;1.90;;;18.90;73.70;;;;;;5033129;28;20425;-73
2022/09/09 07:51:17;;;;;;;3.60;2.00;;;19.00;73.00;;;;;;5044281;28;20443;-74
2022/09/09 07:53:43;;;;;;;3.83;1.73;;;19.00;73.20;;;;;;5038559;28;20473;-73
2022/09/09 07:56:12;;;;;;;6.53;2.33;;;18.90;73.50;;;;;;5041878;28;20428;-73
2022/09/09 07:58:39;;;;;;;4.93;2.23;;;18.90;73.60;;;;;;5038626;28;20801;-72
2022/09/09 08:01:10;;;;;;;2.33;1.60;;;18.90;73.90;;;;;;5039786;28;20420;-73
2022/09/09 08:03:36;;;;;;;3.43;1.80;;;19.00;73.70;;;;;;5038866;28;20462;-73
2022/09/09 08:06:04;;;;;;;5.97;2.63;;;19.10;73.30;;;;;;5040363;28;20781;-73
2022/09/09 08:08:30;;;;;;;7.10;2.87;;;19.20;73.20;;;;;;5040392;28;20429;-72
2022/09/09 08:11:23;;;;;;;5.00;1.90;;;19.30;72.60;;;;;;5040559;28;20450;-74
2022/09/09 08:13:51;;;;;;;2.73;1.80;;;19.50;72.00;;;;;;5039086;28;20479;-73
2022/09/09 08:16:25;;;;;;;3.10;1.40;;;19.50;71.40;;;;;;5039515;28;20429;-73
2022/09/09 08:18:53;;;;;;;3.97;1.60;;;19.60;70.70;;;;;;5043246;28;20473;-74
2022/09/09 08:21:22;;;;;;;2.90;1.67;;;19.60;70.40;;;;;;5041215;28;20424;-73
2022/09/09 08:23:49;;;;;;;3.80;1.50;;;19.60;70.70;;;;;;5041782;28;20523;-74
2022/09/09 08:26:21;;;;;;;3.40;2.20;;;19.60;70.80;;;;;;5043126;28;20433;-74
2022/09/09 08:28:47;;;;;;;4.27;1.67;;;19.70;70.80;;;;;;5043467;28;20434;-73
2022/09/09 08:31:21;;;;;;;5.17;2.53;;;19.70;70.70;;;;;;5037618;28;20474;-74
2022/09/09 08:33:47;;;;;;;4.40;2.20;;;19.70;70.40;;;;;;5039001;28;20305;-73
2022/09/09 08:36:18;;;;;;;2.27;1.57;;;19.80;70.40;;;;;;5042175;28;20427;-71
2022/09/09 08:38:48;;;;;;;3.83;1.33;;;20.00;69.70;;;;;;5042059;28;20472;-71
2022/09/09 08:41:40;;;;;;;5.63;2.10;;;20.20;69.40;;;;;;5049808;28;21076;-71
2022/09/09 08:44:11;;;;;;;3.40;1.80;;;20.20;69.10;;;;;;5035339;28;20460;-70
2022/09/09 08:46:46;;;;;;;5.60;1.93;;;20.20;68.50;;;;;;5042088;28;20453;-72
2022/09/09 08:49:25;;;;;;;6.93;2.10;;;20.20;68.20;;;;;;5035444;28;20432;-72
2022/09/09 08:51:52;;;;;;;2.30;1.60;;;20.20;68.50;;;;;;5043345;28;20428;-72
2022/09/09 08:54:18;;;;;;;6.33;2.00;;;20.30;68.30;;;;;;5044264;28;20467;-71
2022/09/09 08:56:44;;;;;;;6.90;1.60;;;20.40;68.30;;;;;;5049690;28;20950;-71
2022/09/09 08:59:13;;;;;;;2.97;1.37;;;20.50;67.00;;;;;;5042656;28;20467;-73
2022/09/09 09:01:57;;;;;;;10.73;2.50;;;20.50;66.00;;;;;;5041540;28;20439;-70
2022/09/09 09:04:54;;;;;;;5.07;1.80;;;20.50;66.00;;;;;;5039828;28;20458;-72
2022/09/09 09:07:31;;;;;;;9.70;2.10;;;20.60;66.00;;;;;;5010833;28;20425;-73
2022/09/09 09:10:21;;;;;;;5.20;3.07;;;20.70;65.40;;;;;;5044583;28;20849;-72
2022/09/09 09:12:48;;;;;;;32.20;4.17;;;20.70;63.80;;;;;;5048103;28;20466;-71
2022/09/09 09:15:20;;;;;;;9.00;1.87;;;20.70;63.50;;;;;;5042715;28;20435;-70
2022/09/09 09:17:46;;;;;;;12.77;2.90;;;20.70;63.50;;;;;;5041738;28;20437;-71
2022/09/09 09:20:15;;;;;;;6.10;1.77;;;20.70;63.90;;;;;;5048873;28;20429;-73
2022/09/09 09:22:51;;;;;;;6.67;2.13;;;20.70;64.20;;;;;;5031508;28;20578;-70
2022/09/09 09:25:22;;;;;;;4.07;1.57;;;20.60;65.00;;;;;;5040110;28;20842;-71
2022/09/09 09:28:18;;;;;;;6.97;1.90;;;20.60;67.20;;;;;;5037500;28;20423;-73
2022/09/09 09:30:57;;;;;;;3.17;1.73;;;20.30;70.10;;;;;;5035846;28;20547;-72
2022/09/09 09:33:27;;;;;;;3.23;1.70;;;19.70;71.40;;;;;;5037962;28;20816;-72
2022/09/09 09:35:53;;;;;;;3.47;1.63;;;19.30;73.20;;;;;;5035099;28;20497;-71
2022/09/09 09:38:19;;;;;;;2.90;1.40;;;19.00;76.20;;;;;;5039114;28;20526;-73
2022/09/09 09:40:50;;;;;;;2.47;1.13;;;18.30;76.70;;;;;;5036764;28;20432;-73
2022/09/09 09:43:23;;;;;;;3.00;1.60;;;17.70;77.60;;;;;;5045187;28;20458;-71
2022/09/09 09:45:49;;;;;;;1.60;1.20;;;17.60;77.30;;;;;;5035083;28;20442;-70
2022/09/09 09:48:14;;;;;;;7.03;1.20;;;17.60;77.70;;;;;;5040830;28;20435;-71
2022/09/09 09:50:49;;;;;;;5.43;1.70;;;17.80;77.30;;;;;;5035702;28;20187;-73
2022/09/09 09:53:27;;;;;;;4.70;1.20;;;17.90;75.10;;;;;;5040888;28;20696;-71
2022/09/09 09:56:07;;;;;;;2.67;1.20;;;18.10;74.90;;;;;;5037905;28;20763;-71
2022/09/09 09:58:44;;;;;;;2.13;1.30;;;18.40;75.10;;;;;;5040296;28;20547;-73
2022/09/09 10:01:33;;;;;;;2.20;1.80;;;18.70;73.70;;;;;;5042033;28;20498;-73
2022/09/09 10:04:15;;;;;;;3.17;1.40;;;18.90;73.30;;;;;;5041119;28;20458;-72
2022/09/09 10:06:41;;;;;;;5.17;1.03;;;19.20;72.30;;;;;;5046190;28;20497;-70
2022/09/09 10:09:33;;;;;;;2.93;1.40;;;19.40;70.40;;;;;;5043561;28;20978;-71
2022/09/09 10:12:30;;;;;;;6.37;1.60;;;19.50;69.70;;;;;;5045438;28;20204;-72
2022/09/09 10:15:06;;;;;;;3.83;1.70;;;19.80;70.20;;;;;;5022449;28;20439;-72
2022/09/09 10:18:04;;;;;;;4.53;1.30;;;20.00;70.40;;;;;;5044202;28;20420;-75
2022/09/09 10:20:52;;;;;;;3.90;1.87;;;20.30;69.50;;;;;;5044268;28;20541;-72
2022/09/09 10:23:28;;;;;;;5.83;1.90;;;20.30;69.80;;;;;;5036550;28;20451;-72
2022/09/09 10:26:03;;;;;;;2.50;1.53;;;20.40;70.20;;;;;;5044295;28;20420;-76
2022/09/09 10:28:54;;;;;;;8.47;2.00;;;20.50;68.50;;;;;;5042766;28;20497;-73
2022/09/09 10:31:40;;;;;;;3.73;1.63;;;20.70;69.70;;;;;;5041233;28;20978;-73
2022/09/09 10:34:44;;;;;;;5.37;1.90;;;20.80;69.20;;;;;;5042102;28;21000;-72
2022/09/09 10:37:35;;;;;;;3.30;1.63;;;20.90;69.50;;;;;;5020160;28;20424;-72
2022/09/09 10:40:33;;;;;;;5.00;1.70;;;21.20;68.50;;;;;;5045014;28;20736;-73
2022/09/09 10:43:12;;;;;;;2.50;1.60;;;21.30;67.70;;;;;;5041475;28;20532;-71
2022/09/09 10:46:02;;;;;;;2.43;1.60;;;21.80;66.90;;;;;;5041870;28;20437;-74
2022/09/09 10:48:50;;;;;;;3.63;1.67;;;22.10;65.60;;;;;;5043511;28;20950;-73
2022/09/09 10:51:40;;;;;;;2.53;1.60;;;22.10;65.80;;;;;;5045816;28;20502;-72
2022/09/09 10:54:30;;;;;;;4.97;2.20;;;21.90;66.30;;;;;;5048514;28;20454;-71
2022/09/09 10:57:13;;;;;;;4.27;2.20;;;21.90;66.90;;;;;;5041921;28;20466;-72
2022/09/09 10:59:45;;;;;;;3.53;2.03;;;21.90;66.70;;;;;;5044754;28;20466;-73
2022/09/09 11:02:27;;;;;;;6.23;1.83;;;22.00;65.80;;;;;;5051448;28;20432;-74
2022/09/09 11:05:18;;;;;;;2.20;1.63;;;22.40;65.70;;;;;;5047560;28;20451;-73
2022/09/09 11:08:00;;;;;;;4.30;1.70;;;23.20;63.90;;;;;;5045286;28;20432;-73
2022/09/09 11:10:47;;;;;;;4.73;2.10;;;23.60;60.40;;;;;;5039075;28;20411;-73
2022/09/09 11:13:21;;;;;;;4.63;2.00;;;23.40;61.00;;;;;;5044272;28;20833;-73
2022/09/09 11:15:57;;;;;;;3.90;1.87;;;23.20;62.80;;;;;;5049342;28;20421;-73
2022/09/09 11:18:23;;;;;;;4.13;1.30;;;22.90;59.70;;;;;;5053932;28;20475;-72
2022/09/09 11:20:55;;;;;;;7.73;2.43;;;22.70;60.70;;;;;;5057886;28;20494;-73
2022/09/09 11:23:27;;;;;;;5.17;2.00;;;22.50;61.30;;;;;;5055901;28;20452;-73
2022/09/09 11:25:58;;;;;;;4.90;1.53;;;22.00;58.80;;;;;;5042039;28;20975;-73
2022/09/09 11:28:27;;;;;;;4.17;1.60;;;21.30;59.20;;;;;;5048364;28;20775;-73
2022/09/09 11:30:52;;;;;;;9.77;2.27;;;21.30;58.10;;;;;;5047781;28;20431;-72
2022/09/09 11:33:41;;;;;;;3.90;1.33;;;20.80;58.90;;;;;;5045360;28;20472;-73
2022/09/09 11:36:34;;;;;;;3.67;1.87;;;20.80;59.50;;;;;;5039671;28;20598;-73
2022/09/09 11:39:13;;;;;;;2.67;1.40;;;20.80;60.10;;;;;;5044791;28;20985;-73
2022/09/09 11:41:39;;;;;;;3.00;1.40;;;20.50;62.50;;;;;;5050931;28;20713;-73
2022/09/09 11:44:16;;;;;;;8.00;1.37;;;20.60;62.90;;;;;;5045978;28;20462;-73
2022/09/09 11:46:42;;;;;;;5.97;1.33;;;20.40;61.60;;;;;;5049184;28;20647;-71
2022/09/09 11:49:41;;;;;;;2.00;1.03;;;20.00;64.10;;;;;;5050942;28;20426;-72
2022/09/09 11:52:42;;;;;;;2.70;1.30;;;19.90;64.50;;;;;;5042330;28;20435;-73
2022/09/09 11:55:36;;;;;;;2.33;0.90;;;19.90;65.00;;;;;;5039317;28;20862;-72
2022/09/09 11:58:09;;;;;;;2.77;1.20;;;19.90;64.70;;;;;;5033615;28;20449;-72
2022/09/09 12:00:44;;;;;;;4.77;1.10;;;20.00;64.50;;;;;;5041051;28;20922;-74
2022/09/09 12:03:35;;;;;;;1.10;0.70;;;20.10;64.20;;;;;;5044986;28;20482;-72
2022/09/09 12:06:13;;;;;;;3.73;1.00;;;20.50;62.50;;;;;;5035589;28;20424;-73
2022/09/09 12:08:43;;;;;;;4.20;0.97;;;20.80;62.30;;;;;;5046022;28;20797;-73
2022/09/09 12:11:08;;;;;;;1.80;0.97;;;21.10;60.00;;;;;;5041162;28;20922;-72
2022/09/09 12:13:34;;;;;;;1.00;0.67;;;21.20;59.60;;;;;;5041260;28;20464;-74
2022/09/09 12:16:02;;;;;;;2.70;0.70;;;20.80;59.50;;;;;;5040129;28;20655;-73
2022/09/09 12:18:39;;;;;;;2.23;0.80;;;20.40;61.00;;;;;;5043585;28;20478;-73
2022/09/09 12:21:27;;;;;;;2.10;0.80;;;20.20;62.00;;;;;;5047390;28;20450;-73
2022/09/09 12:23:57;;;;;;;1.90;0.83;;;20.20;62.20;;;;;;5038633;28;20462;-72
2022/09/09 12:26:48;;;;;;;2.07;1.07;;;20.80;61.20;;;;;;5044399;28;20477;-72
2022/09/09 12:29:44;;;;;;;3.70;0.83;;;21.30;58.40;;;;;;5047293;28;20417;-72
2022/09/09 12:32:14;;;;;;;1.47;0.93;;;21.70;57.30;;;;;;5044597;28;20418;-72
2022/09/09 12:34:44;;;;;;;2.77;0.93;;;21.90;56.10;;;;;;5038715;28;20501;-72
2022/09/09 12:37:35;;;;;;;2.40;1.00;;;22.30;53.70;;;;;;5046246;28;20860;-72
2022/09/09 12:40:05;;;;;;;1.80;1.10;;;22.60;52.40;;;;;;5039186;28;21178;-72
2022/09/09 12:42:35;;;;;;;1.67;1.00;;;22.60;52.20;;;;;;5039311;28;20496;-73
2022/09/09 12:45:03;;;;;;;1.57;0.90;;;22.40;51.40;;;;;;5039644;28;20424;-73
2022/09/09 12:47:41;;;;;;;1.63;0.90;;;22.40;51.70;;;;;;5041905;28;20424;-72
2022/09/09 12:50:22;;;;;;;2.37;1.20;;;22.20;53.20;;;;;;5047150;28;20956;-74
2022/09/09 12:52:51;;;;;;;4.23;1.10;;;21.80;54.50;;;;;;5041374;28;20876;-72
2022/09/09 12:55:24;;;;;;;3.63;1.00;;;21.70;55.60;;;;;;5042701;28;20450;-71
2022/09/09 12:57:51;;;;;;;3.60;1.13;;;21.50;56.50;;;;;;5036401;28;20480;-72
2022/09/09 13:00:22;;;;;;;1.10;0.90;;;21.50;57.30;;;;;;5042692;28;20476;-72
2022/09/09 13:02:52;;;;;;;2.80;1.47;;;21.60;57.30;;;;;;5037258;28;21050;-72
2022/09/09 13:05:24;;;;;;;4.33;1.17;;;21.70;56.90;;;;;;5042114;28;20430;-72
2022/09/09 13:07:50;;;;;;;2.70;1.10;;;21.90;57.20;;;;;;5038191;28;20444;-71
2022/09/09 13:10:24;;;;;;;2.20;0.90;;;21.80;57.30;;;;;;5040598;28;20421;-73
2022/09/09 13:12:50;;;;;;;3.50;1.20;;;21.60;57.30;;;;;;5038382;28;20500;-71
2022/09/09 13:15:26;;;;;;;5.57;1.20;;;21.60;57.80;;;;;;5043602;28;20445;-72